sensor_id;sensor_type;location;lat;lon;timestamp;P1;durP1;ratioP1;P2;durP2;ratioP2
9409;SDS011;4744;52.576;13.568;2023-05-07T00:00:43;12.13;;;10.52;;
9409;SDS011;4744;52.576;13.568;2023-05-07T00:03:10;10.65;;;9.75;;
9409;SDS011;4744;52.576;13.568;2023-05-07T00:05:38;11.88;;;10.85;;
9409;SDS011;4744;52.576;13.568;2023-05-07T00:08:06;11.38;;;10.25;;
9409;SDS011;4744;52.576;13.568;2023-05-07T00:10:33;10.90;;;9.82;;
9409;SDS011;4744;52.576;13.568;2023-05-07T00:13:00;10.25;;;9.35;;
9409;SDS011;4744;52.576;13.568;2023-05-07T00:15:27;10.88;;;9.85;;
9409;SDS011;4744;52.576;13.568;2023-05-07T00:17:55;11.15;;;9.65;;
9409;SDS011;4744;52.576;13.568;2023-05-07T00:20:23;10.77;;;9.57;;
9409;SDS011;4744;52.576;13.568;2023-05-07T00:22:50;10.20;;;9.15;;
9409;SDS011;4744;52.576;13.568;2023-05-07T00:25:17;10.73;;;9.68;;
9409;SDS011;4744;52.576;13.568;2023-05-07T00:27:45;10.00;;;9.15;;
9409;SDS011;4744;52.576;13.568;2023-05-07T00:30:12;9.88;;;8.98;;
9409;SDS011;4744;52.576;13.568;2023-05-07T00:32:39;10.15;;;9.15;;
9409;SDS011;4744;52.576;13.568;2023-05-07T00:35:08;9.07;;;8.23;;
9409;SDS011;4744;52.576;13.568;2023-05-07T00:37:35;10.35;;;9.35;;
9409;SDS011;4744;52.576;13.568;2023-05-07T00:40:02;10.15;;;9.25;;
9409;SDS011;4744;52.576;13.568;2023-05-07T00:42:32;11.10;;;10.00;;
9409;SDS011;4744;52.576;13.568;2023-05-07T00:44:59;9.60;;;8.70;;
9409;SDS011;4744;52.576;13.568;2023-05-07T00:47:26;11.02;;;9.93;;
9409;SDS011;4744;52.576;13.568;2023-05-07T00:49:52;10.55;;;9.55;;
9409;SDS011;4744;52.576;13.568;2023-05-07T00:52:21;9.13;;;8.30;;
9409;SDS011;4744;52.576;13.568;2023-05-07T00:54:51;9.88;;;8.98;;
9409;SDS011;4744;52.576;13.568;2023-05-07T00:57:20;9.90;;;8.93;;
9409;SDS011;4744;52.576;13.568;2023-05-07T00:59:48;9.75;;;8.82;;
9409;SDS011;4744;52.576;13.568;2023-05-07T01:02:15;10.45;;;9.50;;
9409;SDS011;4744;52.576;13.568;2023-05-07T01:04:42;10.35;;;9.27;;
9409;SDS011;4744;52.576;13.568;2023-05-07T01:07:09;11.55;;;10.32;;
9409;SDS011;4744;52.576;13.568;2023-05-07T01:09:37;11.93;;;10.45;;
9409;SDS011;4744;52.576;13.568;2023-05-07T01:12:06;10.63;;;9.68;;
9409;SDS011;4744;52.576;13.568;2023-05-07T01:14:34;10.80;;;9.82;;
9409;SDS011;4744;52.576;13.568;2023-05-07T01:17:01;11.68;;;10.60;;
9409;SDS011;4744;52.576;13.568;2023-05-07T01:19:28;11.35;;;10.25;;
9409;SDS011;4744;52.576;13.568;2023-05-07T01:21:58;11.35;;;10.18;;
9409;SDS011;4744;52.576;13.568;2023-05-07T01:24:31;11.55;;;10.27;;
9409;SDS011;4744;52.576;13.568;2023-05-07T01:26:58;10.48;;;9.48;;
9409;SDS011;4744;52.576;13.568;2023-05-07T01:29:26;10.73;;;9.70;;
9409;SDS011;4744;52.576;13.568;2023-05-07T01:31:53;11.60;;;10.50;;
9409;SDS011;4744;52.576;13.568;2023-05-07T01:34:21;11.55;;;10.45;;
9409;SDS011;4744;52.576;13.568;2023-05-07T01:36:50;11.32;;;10.23;;
9409;SDS011;4744;52.576;13.568;2023-05-07T01:39:20;11.07;;;10.10;;
9409;SDS011;4744;52.576;13.568;2023-05-07T01:41:49;9.82;;;8.93;;
9409;SDS011;4744;52.576;13.568;2023-05-07T01:44:17;10.30;;;9.30;;
9409;SDS011;4744;52.576;13.568;2023-05-07T01:46:45;10.73;;;9.75;;
9409;SDS011;4744;52.576;13.568;2023-05-07T01:49:13;11.30;;;10.20;;
9409;SDS011;4744;52.576;13.568;2023-05-07T01:51:40;11.60;;;10.10;;
9409;SDS011;4744;52.576;13.568;2023-05-07T01:54:08;11.02;;;10.02;;
9409;SDS011;4744;52.576;13.568;2023-05-07T01:56:35;11.25;;;10.18;;
9409;SDS011;4744;52.576;13.568;2023-05-07T01:59:03;10.95;;;9.85;;
9409;SDS011;4744;52.576;13.568;2023-05-07T02:01:30;11.63;;;10.38;;
9409;SDS011;4744;52.576;13.568;2023-05-07T02:03:57;10.48;;;9.48;;
9409;SDS011;4744;52.576;13.568;2023-05-07T02:06:24;10.40;;;9.52;;
9409;SDS011;4744;52.576;13.568;2023-05-07T02:08:51;9.55;;;8.75;;
9409;SDS011;4744;52.576;13.568;2023-05-07T02:11:18;9.88;;;8.88;;
9409;SDS011;4744;52.576;13.568;2023-05-07T02:13:45;10.70;;;9.70;;
9409;SDS011;4744;52.576;13.568;2023-05-07T02:16:13;10.57;;;9.48;;
9409;SDS011;4744;52.576;13.568;2023-05-07T02:18:40;10.27;;;9.32;;
9409;SDS011;4744;52.576;13.568;2023-05-07T02:21:07;10.43;;;9.43;;
9409;SDS011;4744;52.576;13.568;2023-05-07T02:23:34;9.70;;;8.90;;
9409;SDS011;4744;52.576;13.568;2023-05-07T02:26:00;8.75;;;7.95;;
9409;SDS011;4744;52.576;13.568;2023-05-07T02:28:27;10.18;;;9.10;;
9409;SDS011;4744;52.576;13.568;2023-05-07T02:30:54;10.13;;;9.23;;
9409;SDS011;4744;52.576;13.568;2023-05-07T02:33:24;9.73;;;8.82;;
9409;SDS011;4744;52.576;13.568;2023-05-07T02:35:51;9.00;;;8.20;;
9409;SDS011;4744;52.576;13.568;2023-05-07T02:38:18;9.07;;;8.27;;
9409;SDS011;4744;52.576;13.568;2023-05-07T02:40:45;9.77;;;8.77;;
9409;SDS011;4744;52.576;13.568;2023-05-07T02:43:12;9.57;;;8.68;;
9409;SDS011;4744;52.576;13.568;2023-05-07T02:45:39;9.10;;;8.20;;
9409;SDS011;4744;52.576;13.568;2023-05-07T02:48:06;8.80;;;8.00;;
9409;SDS011;4744;52.576;13.568;2023-05-07T02:50:34;8.57;;;7.78;;
9409;SDS011;4744;52.576;13.568;2023-05-07T02:53:01;8.95;;;8.15;;
9409;SDS011;4744;52.576;13.568;2023-05-07T02:55:27;8.90;;;8.07;;
9409;SDS011;4744;52.576;13.568;2023-05-07T02:57:54;8.57;;;7.78;;
9409;SDS011;4744;52.576;13.568;2023-05-07T03:00:21;8.55;;;7.57;;
9409;SDS011;4744;52.576;13.568;2023-05-07T03:02:49;7.97;;;7.20;;
9409;SDS011;4744;52.576;13.568;2023-05-07T03:05:15;8.45;;;7.75;;
9409;SDS011;4744;52.576;13.568;2023-05-07T03:07:44;8.18;;;7.38;;
9409;SDS011;4744;52.576;13.568;2023-05-07T03:10:12;9.15;;;8.25;;
9409;SDS011;4744;52.576;13.568;2023-05-07T03:12:39;8.50;;;7.70;;
9409;SDS011;4744;52.576;13.568;2023-05-07T03:15:06;8.55;;;7.75;;
9409;SDS011;4744;52.576;13.568;2023-05-07T03:17:34;7.63;;;6.93;;
9409;SDS011;4744;52.576;13.568;2023-05-07T03:20:01;8.60;;;7.80;;
9409;SDS011;4744;52.576;13.568;2023-05-07T03:22:28;8.00;;;7.30;;
9409;SDS011;4744;52.576;13.568;2023-05-07T03:24:57;8.27;;;7.47;;
9409;SDS011;4744;52.576;13.568;2023-05-07T03:27:24;8.98;;;8.07;;
9409;SDS011;4744;52.576;13.568;2023-05-07T03:29:50;8.43;;;7.63;;
9409;SDS011;4744;52.576;13.568;2023-05-07T03:32:17;8.50;;;7.43;;
9409;SDS011;4744;52.576;13.568;2023-05-07T03:34:44;8.30;;;7.60;;
9409;SDS011;4744;52.576;13.568;2023-05-07T03:37:11;8.40;;;7.38;;
9409;SDS011;4744;52.576;13.568;2023-05-07T03:39:38;7.80;;;6.93;;
9409;SDS011;4744;52.576;13.568;2023-05-07T03:42:06;7.63;;;6.93;;
9409;SDS011;4744;52.576;13.568;2023-05-07T03:44:33;8.02;;;7.28;;
9409;SDS011;4744;52.576;13.568;2023-05-07T03:47:01;7.40;;;6.70;;
9409;SDS011;4744;52.576;13.568;2023-05-07T03:49:28;8.18;;;6.93;;
9409;SDS011;4744;52.576;13.568;2023-05-07T03:51:55;7.25;;;6.65;;
9409;SDS011;4744;52.576;13.568;2023-05-07T03:54:22;7.95;;;7.20;;
9409;SDS011;4744;52.576;13.568;2023-05-07T03:56:48;8.00;;;7.20;;
9409;SDS011;4744;52.576;13.568;2023-05-07T03:59:17;8.50;;;6.93;;
9409;SDS011;4744;52.576;13.568;2023-05-07T04:01:43;8.02;;;7.32;;
9409;SDS011;4744;52.576;13.568;2023-05-07T04:04:10;8.52;;;7.50;;
9409;SDS011;4744;52.576;13.568;2023-05-07T04:06:37;8.98;;;8.18;;
9409;SDS011;4744;52.576;13.568;2023-05-07T04:09:04;8.57;;;7.75;;
9409;SDS011;4744;52.576;13.568;2023-05-07T04:11:31;8.35;;;7.47;;
9409;SDS011;4744;52.576;13.568;2023-05-07T04:13:58;8.02;;;7.22;;
9409;SDS011;4744;52.576;13.568;2023-05-07T04:16:27;8.73;;;7.47;;
9409;SDS011;4744;52.576;13.568;2023-05-07T04:18:53;8.13;;;7.32;;
9409;SDS011;4744;52.576;13.568;2023-05-07T04:21:20;7.80;;;7.15;;
9409;SDS011;4744;52.576;13.568;2023-05-07T04:23:47;8.00;;;7.22;;
9409;SDS011;4744;52.576;13.568;2023-05-07T04:26:15;7.95;;;7.25;;
9409;SDS011;4744;52.576;13.568;2023-05-07T04:28:42;7.80;;;6.82;;
9409;SDS011;4744;52.576;13.568;2023-05-07T04:31:09;7.97;;;7.03;;
9409;SDS011;4744;52.576;13.568;2023-05-07T04:33:41;8.80;;;7.65;;
9409;SDS011;4744;52.576;13.568;2023-05-07T04:36:10;8.18;;;7.45;;
9409;SDS011;4744;52.576;13.568;2023-05-07T04:38:37;8.32;;;7.63;;
9409;SDS011;4744;52.576;13.568;2023-05-07T04:41:04;7.38;;;6.72;;
9409;SDS011;4744;52.576;13.568;2023-05-07T04:43:32;7.63;;;6.93;;
9409;SDS011;4744;52.576;13.568;2023-05-07T04:45:58;7.82;;;7.13;;
9409;SDS011;4744;52.576;13.568;2023-05-07T04:48:25;7.43;;;6.72;;
9409;SDS011;4744;52.576;13.568;2023-05-07T04:50:55;7.35;;;6.65;;
9409;SDS011;4744;52.576;13.568;2023-05-07T04:53:22;7.47;;;6.78;;
9409;SDS011;4744;52.576;13.568;2023-05-07T04:55:54;7.88;;;7.18;;
9409;SDS011;4744;52.576;13.568;2023-05-07T04:58:22;7.35;;;6.65;;
9409;SDS011;4744;52.576;13.568;2023-05-07T05:00:49;7.03;;;6.32;;
9409;SDS011;4744;52.576;13.568;2023-05-07T05:03:16;7.60;;;6.90;;
9409;SDS011;4744;52.576;13.568;2023-05-07T05:05:43;7.32;;;6.60;;
9409;SDS011;4744;52.576;13.568;2023-05-07T05:08:11;6.68;;;6.07;;
9409;SDS011;4744;52.576;13.568;2023-05-07T05:10:38;7.95;;;6.68;;
9409;SDS011;4744;52.576;13.568;2023-05-07T05:13:06;6.65;;;5.97;;
9409;SDS011;4744;52.576;13.568;2023-05-07T05:15:34;6.80;;;6.07;;
9409;SDS011;4744;52.576;13.568;2023-05-07T05:18:01;6.65;;;6.00;;
9409;SDS011;4744;52.576;13.568;2023-05-07T05:20:31;6.63;;;6.13;;
9409;SDS011;4744;52.576;13.568;2023-05-07T05:22:58;6.80;;;6.20;;
9409;SDS011;4744;52.576;13.568;2023-05-07T05:25:26;7.13;;;6.43;;
9409;SDS011;4744;52.576;13.568;2023-05-07T05:27:53;8.73;;;6.65;;
9409;SDS011;4744;52.576;13.568;2023-05-07T05:30:20;6.75;;;6.15;;
9409;SDS011;4744;52.576;13.568;2023-05-07T05:32:47;7.18;;;6.57;;
9409;SDS011;4744;52.576;13.568;2023-05-07T05:35:14;7.60;;;6.60;;
9409;SDS011;4744;52.576;13.568;2023-05-07T05:37:41;7.10;;;6.35;;
9409;SDS011;4744;52.576;13.568;2023-05-07T05:40:08;7.25;;;6.65;;
9409;SDS011;4744;52.576;13.568;2023-05-07T05:42:37;8.20;;;6.82;;
9409;SDS011;4744;52.576;13.568;2023-05-07T05:45:04;6.55;;;5.90;;
9409;SDS011;4744;52.576;13.568;2023-05-07T05:47:32;7.13;;;6.43;;
9409;SDS011;4744;52.576;13.568;2023-05-07T05:49:59;7.50;;;6.80;;
9409;SDS011;4744;52.576;13.568;2023-05-07T05:52:26;7.35;;;6.65;;
9409;SDS011;4744;52.576;13.568;2023-05-07T05:54:53;6.90;;;6.20;;
9409;SDS011;4744;52.576;13.568;2023-05-07T05:57:20;7.55;;;6.85;;
9409;SDS011;4744;52.576;13.568;2023-05-07T05:59:48;7.70;;;6.38;;
9409;SDS011;4744;52.576;13.568;2023-05-07T06:02:15;6.45;;;5.95;;
9409;SDS011;4744;52.576;13.568;2023-05-07T06:04:42;6.45;;;5.80;;
9409;SDS011;4744;52.576;13.568;2023-05-07T06:07:09;7.55;;;6.85;;
9409;SDS011;4744;52.576;13.568;2023-05-07T06:09:36;6.85;;;6.15;;
9409;SDS011;4744;52.576;13.568;2023-05-07T06:12:03;9.27;;;5.97;;
9409;SDS011;4744;52.576;13.568;2023-05-07T06:14:30;6.75;;;6.03;;
9409;SDS011;4744;52.576;13.568;2023-05-07T06:16:58;6.82;;;6.22;;
9409;SDS011;4744;52.576;13.568;2023-05-07T06:19:25;6.35;;;5.70;;
9409;SDS011;4744;52.576;13.568;2023-05-07T06:21:53;5.97;;;5.32;;
9409;SDS011;4744;52.576;13.568;2023-05-07T06:24:21;8.80;;;6.38;;
9409;SDS011;4744;52.576;13.568;2023-05-07T06:26:48;7.28;;;6.00;;
9409;SDS011;4744;52.576;13.568;2023-05-07T06:29:15;6.47;;;5.88;;
9409;SDS011;4744;52.576;13.568;2023-05-07T06:31:44;6.78;;;6.18;;
9409;SDS011;4744;52.576;13.568;2023-05-07T06:34:13;7.25;;;5.93;;
9409;SDS011;4744;52.576;13.568;2023-05-07T06:36:40;6.18;;;5.60;;
9409;SDS011;4744;52.576;13.568;2023-05-07T06:39:07;6.15;;;5.55;;
9409;SDS011;4744;52.576;13.568;2023-05-07T06:41:34;5.85;;;5.25;;
9409;SDS011;4744;52.576;13.568;2023-05-07T06:44:01;6.63;;;5.85;;
9409;SDS011;4744;52.576;13.568;2023-05-07T06:46:28;6.65;;;6.05;;
9409;SDS011;4744;52.576;13.568;2023-05-07T06:48:55;6.03;;;5.47;;
9409;SDS011;4744;52.576;13.568;2023-05-07T06:51:24;5.90;;;5.40;;
9409;SDS011;4744;52.576;13.568;2023-05-07T06:53:51;6.28;;;5.35;;
9409;SDS011;4744;52.576;13.568;2023-05-07T06:56:18;5.93;;;5.40;;
9409;SDS011;4744;52.576;13.568;2023-05-07T06:58:46;6.90;;;5.32;;
9409;SDS011;4744;52.576;13.568;2023-05-07T07:01:13;5.88;;;5.32;;
9409;SDS011;4744;52.576;13.568;2023-05-07T07:03:40;5.20;;;4.75;;
9409;SDS011;4744;52.576;13.568;2023-05-07T07:06:07;4.82;;;4.43;;
9409;SDS011;4744;52.576;13.568;2023-05-07T07:08:35;5.50;;;5.03;;
9409;SDS011;4744;52.576;13.568;2023-05-07T07:11:03;5.82;;;5.20;;
9409;SDS011;4744;52.576;13.568;2023-05-07T07:13:30;5.72;;;5.00;;
9409;SDS011;4744;52.576;13.568;2023-05-07T07:15:57;6.03;;;4.75;;
9409;SDS011;4744;52.576;13.568;2023-05-07T07:18:24;5.53;;;4.55;;
9409;SDS011;4744;52.576;13.568;2023-05-07T07:20:51;5.07;;;4.68;;
9409;SDS011;4744;52.576;13.568;2023-05-07T07:23:18;6.35;;;4.65;;
9409;SDS011;4744;52.576;13.568;2023-05-07T07:25:46;5.50;;;5.00;;
9409;SDS011;4744;52.576;13.568;2023-05-07T07:28:13;5.10;;;4.60;;
9409;SDS011;4744;52.576;13.568;2023-05-07T07:30:41;5.00;;;4.50;;
9409;SDS011;4744;52.576;13.568;2023-05-07T07:33:07;5.63;;;3.92;;
9409;SDS011;4744;52.576;13.568;2023-05-07T07:35:34;4.13;;;3.70;;
9409;SDS011;4744;52.576;13.568;2023-05-07T07:38:01;5.60;;;3.70;;
9409;SDS011;4744;52.576;13.568;2023-05-07T07:40:28;4.10;;;3.70;;
9409;SDS011;4744;52.576;13.568;2023-05-07T07:42:56;3.78;;;3.47;;
9409;SDS011;4744;52.576;13.568;2023-05-07T07:45:24;6.65;;;3.63;;
9409;SDS011;4744;52.576;13.568;2023-05-07T07:47:51;4.55;;;3.47;;
9409;SDS011;4744;52.576;13.568;2023-05-07T07:50:18;3.60;;;3.30;;
9409;SDS011;4744;52.576;13.568;2023-05-07T07:52:45;3.45;;;3.17;;
9409;SDS011;4744;52.576;13.568;2023-05-07T07:55:12;3.42;;;3.10;;
9409;SDS011;4744;52.576;13.568;2023-05-07T07:57:47;3.78;;;3.00;;
9409;SDS011;4744;52.576;13.568;2023-05-07T08:00:16;4.60;;;3.00;;
9409;SDS011;4744;52.576;13.568;2023-05-07T08:02:43;4.90;;;3.00;;
9409;SDS011;4744;52.576;13.568;2023-05-07T08:05:17;2.80;;;2.55;;
9409;SDS011;4744;52.576;13.568;2023-05-07T08:07:45;3.20;;;2.90;;
9409;SDS011;4744;52.576;13.568;2023-05-07T08:10:16;3.00;;;2.70;;
9409;SDS011;4744;52.576;13.568;2023-05-07T08:12:46;2.95;;;2.63;;
9409;SDS011;4744;52.576;13.568;2023-05-07T08:15:14;4.18;;;2.95;;
9409;SDS011;4744;52.576;13.568;2023-05-07T08:17:42;3.80;;;2.70;;
9409;SDS011;4744;52.576;13.568;2023-05-07T08:20:10;2.80;;;2.60;;
9409;SDS011;4744;52.576;13.568;2023-05-07T08:22:37;2.60;;;2.40;;
9409;SDS011;4744;52.576;13.568;2023-05-07T08:25:04;3.63;;;2.58;;
9409;SDS011;4744;52.576;13.568;2023-05-07T08:27:31;2.55;;;2.35;;
9409;SDS011;4744;52.576;13.568;2023-05-07T08:30:00;3.78;;;2.50;;
9409;SDS011;4744;52.576;13.568;2023-05-07T08:32:29;3.30;;;2.65;;
9409;SDS011;4744;52.576;13.568;2023-05-07T08:34:55;2.95;;;2.33;;
9409;SDS011;4744;52.576;13.568;2023-05-07T08:37:22;2.67;;;2.47;;
9409;SDS011;4744;52.576;13.568;2023-05-07T08:39:49;2.50;;;2.30;;
9409;SDS011;4744;52.576;13.568;2023-05-07T08:42:16;2.65;;;2.05;;
9409;SDS011;4744;52.576;13.568;2023-05-07T08:44:44;2.63;;;2.42;;
9409;SDS011;4744;52.576;13.568;2023-05-07T08:47:12;2.50;;;2.30;;
9409;SDS011;4744;52.576;13.568;2023-05-07T08:49:41;3.20;;;2.20;;
9409;SDS011;4744;52.576;13.568;2023-05-07T08:52:08;1.92;;;1.83;;
9409;SDS011;4744;52.576;13.568;2023-05-07T08:54:36;2.38;;;2.13;;
9409;SDS011;4744;52.576;13.568;2023-05-07T08:57:03;2.40;;;2.28;;
9409;SDS011;4744;52.576;13.568;2023-05-07T08:59:30;2.53;;;2.30;;
9409;SDS011;4744;52.576;13.568;2023-05-07T09:01:57;2.67;;;2.33;;
9409;SDS011;4744;52.576;13.568;2023-05-07T09:04:24;2.33;;;2.13;;
9409;SDS011;4744;52.576;13.568;2023-05-07T09:06:52;2.60;;;2.38;;
9409;SDS011;4744;52.576;13.568;2023-05-07T09:09:21;3.20;;;2.30;;
9409;SDS011;4744;52.576;13.568;2023-05-07T09:11:48;2.72;;;2.53;;
9409;SDS011;4744;52.576;13.568;2023-05-07T09:14:23;2.75;;;2.55;;
9409;SDS011;4744;52.576;13.568;2023-05-07T09:16:51;2.70;;;2.50;;
9409;SDS011;4744;52.576;13.568;2023-05-07T09:19:21;2.60;;;2.40;;
9409;SDS011;4744;52.576;13.568;2023-05-07T09:21:48;2.67;;;2.47;;
9409;SDS011;4744;52.576;13.568;2023-05-07T09:24:20;2.65;;;2.38;;
9409;SDS011;4744;52.576;13.568;2023-05-07T09:26:47;2.20;;;2.10;;
9409;SDS011;4744;52.576;13.568;2023-05-07T09:29:15;2.22;;;2.13;;
9409;SDS011;4744;52.576;13.568;2023-05-07T09:31:42;3.15;;;2.40;;
9409;SDS011;4744;52.576;13.568;2023-05-07T09:34:09;2.28;;;2.17;;
9409;SDS011;4744;52.576;13.568;2023-05-07T09:36:36;2.38;;;2.17;;
9409;SDS011;4744;52.576;13.568;2023-05-07T09:39:03;2.15;;;2.00;;
9409;SDS011;4744;52.576;13.568;2023-05-07T09:41:32;3.08;;;2.25;;
9409;SDS011;4744;52.576;13.568;2023-05-07T09:43:59;2.30;;;2.10;;
9409;SDS011;4744;52.576;13.568;2023-05-07T09:46:28;2.50;;;2.28;;
9409;SDS011;4744;52.576;13.568;2023-05-07T09:48:57;2.08;;;1.77;;
9409;SDS011;4744;52.576;13.568;2023-05-07T09:51:25;3.35;;;2.30;;
9409;SDS011;4744;52.576;13.568;2023-05-07T09:53:56;1.85;;;1.75;;
9409;SDS011;4744;52.576;13.568;2023-05-07T09:56:25;1.70;;;1.60;;
9409;SDS011;4744;52.576;13.568;2023-05-07T09:58:54;3.08;;;2.20;;
9409;SDS011;4744;52.576;13.568;2023-05-07T10:01:23;2.05;;;1.95;;
9409;SDS011;4744;52.576;13.568;2023-05-07T10:03:51;1.92;;;1.83;;
9409;SDS011;4744;52.576;13.568;2023-05-07T10:06:19;2.25;;;2.08;;
9409;SDS011;4744;52.576;13.568;2023-05-07T10:08:46;5.03;;;2.33;;
9409;SDS011;4744;52.576;13.568;2023-05-07T10:11:15;2.00;;;1.80;;
9409;SDS011;4744;52.576;13.568;2023-05-07T10:13:43;2.50;;;1.58;;
9409;SDS011;4744;52.576;13.568;2023-05-07T10:16:11;2.20;;;1.98;;
9409;SDS011;4744;52.576;13.568;2023-05-07T10:18:41;1.85;;;1.75;;
9409;SDS011;4744;52.576;13.568;2023-05-07T10:21:11;2.88;;;1.50;;
9409;SDS011;4744;52.576;13.568;2023-05-07T10:23:43;2.58;;;2.00;;
9409;SDS011;4744;52.576;13.568;2023-05-07T10:26:12;2.13;;;1.98;;
9409;SDS011;4744;52.576;13.568;2023-05-07T10:28:41;2.10;;;1.90;;
9409;SDS011;4744;52.576;13.568;2023-05-07T10:31:18;2.00;;;1.90;;
9409;SDS011;4744;52.576;13.568;2023-05-07T10:33:58;4.10;;;2.00;;
9409;SDS011;4744;52.576;13.568;2023-05-07T10:36:27;2.03;;;1.67;;
9409;SDS011;4744;52.576;13.568;2023-05-07T10:38:54;1.85;;;1.75;;
9409;SDS011;4744;52.576;13.568;2023-05-07T10:41:21;1.60;;;1.50;;
9409;SDS011;4744;52.576;13.568;2023-05-07T10:43:48;3.35;;;1.63;;
9409;SDS011;4744;52.576;13.568;2023-05-07T10:46:17;1.83;;;1.73;;
9409;SDS011;4744;52.576;13.568;2023-05-07T10:51:37;5.10;;;1.90;;
9409;SDS011;4744;52.576;13.568;2023-05-07T10:54:20;2.50;;;1.60;;
9409;SDS011;4744;52.576;13.568;2023-05-07T10:56:48;3.53;;;1.55;;
9409;SDS011;4744;52.576;13.568;2023-05-07T10:59:34;1.73;;;1.63;;
9409;SDS011;4744;52.576;13.568;2023-05-07T11:02:09;6.80;;;2.05;;
9409;SDS011;4744;52.576;13.568;2023-05-07T11:04:39;1.67;;;1.58;;
9409;SDS011;4744;52.576;13.568;2023-05-07T11:07:24;2.65;;;1.60;;
9409;SDS011;4744;52.576;13.568;2023-05-07T11:09:58;2.85;;;1.67;;
9409;SDS011;4744;52.576;13.568;2023-05-07T11:15:35;2.97;;;1.80;;
9409;SDS011;4744;52.576;13.568;2023-05-07T11:18:08;5.70;;;1.83;;
9409;SDS011;4744;52.576;13.568;2023-05-07T11:20:52;1.88;;;1.58;;
9409;SDS011;4744;52.576;13.568;2023-05-07T11:26:42;1.75;;;1.60;;
9409;SDS011;4744;52.576;13.568;2023-05-07T11:29:11;2.03;;;1.65;;
9409;SDS011;4744;52.576;13.568;2023-05-07T11:31:40;3.90;;;1.60;;
9409;SDS011;4744;52.576;13.568;2023-05-07T11:34:08;1.90;;;1.70;;
9409;SDS011;4744;52.576;13.568;2023-05-07T11:36:41;2.42;;;1.60;;
9409;SDS011;4744;52.576;13.568;2023-05-07T11:39:22;1.85;;;1.40;;
9409;SDS011;4744;52.576;13.568;2023-05-07T11:41:51;1.60;;;1.50;;
9409;SDS011;4744;52.576;13.568;2023-05-07T11:44:17;1.65;;;1.40;;
9409;SDS011;4744;52.576;13.568;2023-05-07T11:46:44;3.15;;;1.60;;
9409;SDS011;4744;52.576;13.568;2023-05-07T11:49:13;3.22;;;1.38;;
9409;SDS011;4744;52.576;13.568;2023-05-07T11:51:40;3.63;;;1.88;;
9409;SDS011;4744;52.576;13.568;2023-05-07T11:54:08;1.67;;;1.58;;
9409;SDS011;4744;52.576;13.568;2023-05-07T11:56:36;1.60;;;1.50;;
9409;SDS011;4744;52.576;13.568;2023-05-07T11:59:04;1.55;;;1.45;;
9409;SDS011;4744;52.576;13.568;2023-05-07T12:01:31;3.33;;;1.50;;
9409;SDS011;4744;52.576;13.568;2023-05-07T12:03:58;1.67;;;1.50;;
9409;SDS011;4744;52.576;13.568;2023-05-07T12:06:30;4.00;;;1.58;;
9409;SDS011;4744;52.576;13.568;2023-05-07T12:08:57;1.63;;;1.52;;
9409;SDS011;4744;52.576;13.568;2023-05-07T12:11:24;1.45;;;1.40;;
9409;SDS011;4744;52.576;13.568;2023-05-07T12:13:51;1.50;;;1.40;;
9409;SDS011;4744;52.576;13.568;2023-05-07T12:16:20;1.65;;;1.33;;
9409;SDS011;4744;52.576;13.568;2023-05-07T12:18:47;2.17;;;1.83;;
9409;SDS011;4744;52.576;13.568;2023-05-07T12:21:15;1.45;;;1.33;;
9409;SDS011;4744;52.576;13.568;2023-05-07T12:23:44;2.00;;;1.52;;
9409;SDS011;4744;52.576;13.568;2023-05-07T12:26:11;1.70;;;1.60;;
9409;SDS011;4744;52.576;13.568;2023-05-07T12:28:38;1.60;;;1.50;;
9409;SDS011;4744;52.576;13.568;2023-05-07T12:31:05;1.73;;;1.58;;
9409;SDS011;4744;52.576;13.568;2023-05-07T12:33:33;1.77;;;1.30;;
9409;SDS011;4744;52.576;13.568;2023-05-07T12:36:02;1.70;;;1.60;;
9409;SDS011;4744;52.576;13.568;2023-05-07T12:38:35;2.67;;;1.88;;
9409;SDS011;4744;52.576;13.568;2023-05-07T12:41:05;2.30;;;1.63;;
9409;SDS011;4744;52.576;13.568;2023-05-07T12:43:33;1.40;;;1.30;;
9409;SDS011;4744;52.576;13.568;2023-05-07T12:46:03;1.50;;;1.40;;
9409;SDS011;4744;52.576;13.568;2023-05-07T12:48:31;1.63;;;1.42;;
9409;SDS011;4744;52.576;13.568;2023-05-07T12:50:59;2.67;;;1.40;;
9409;SDS011;4744;52.576;13.568;2023-05-07T12:53:27;1.70;;;1.42;;
9409;SDS011;4744;52.576;13.568;2023-05-07T12:55:55;4.82;;;1.50;;
9409;SDS011;4744;52.576;13.568;2023-05-07T12:58:26;2.03;;;1.60;;
9409;SDS011;4744;52.576;13.568;2023-05-07T13:00:53;1.60;;;1.50;;
9409;SDS011;4744;52.576;13.568;2023-05-07T13:03:25;2.35;;;1.40;;
9409;SDS011;4744;52.576;13.568;2023-05-07T13:05:54;1.70;;;1.50;;
9409;SDS011;4744;52.576;13.568;2023-05-07T13:08:25;1.40;;;1.30;;
9409;SDS011;4744;52.576;13.568;2023-05-07T13:10:56;1.60;;;1.50;;
9409;SDS011;4744;52.576;13.568;2023-05-07T13:13:29;1.77;;;1.67;;
9409;SDS011;4744;52.576;13.568;2023-05-07T13:15:57;1.70;;;1.60;;
9409;SDS011;4744;52.576;13.568;2023-05-07T13:18:24;2.63;;;1.58;;
9409;SDS011;4744;52.576;13.568;2023-05-07T13:20:52;1.73;;;1.63;;
9409;SDS011;4744;52.576;13.568;2023-05-07T13:23:19;4.38;;;1.65;;
9409;SDS011;4744;52.576;13.568;2023-05-07T13:25:46;1.65;;;1.52;;
9409;SDS011;4744;52.576;13.568;2023-05-07T13:28:14;2.10;;;1.50;;
9409;SDS011;4744;52.576;13.568;2023-05-07T13:30:42;3.70;;;1.42;;
9409;SDS011;4744;52.576;13.568;2023-05-07T13:33:09;2.22;;;1.33;;
9409;SDS011;4744;52.576;13.568;2023-05-07T13:35:36;1.67;;;1.58;;
9409;SDS011;4744;52.576;13.568;2023-05-07T13:38:03;2.95;;;1.40;;
9409;SDS011;4744;52.576;13.568;2023-05-07T13:40:30;2.50;;;1.40;;
9409;SDS011;4744;52.576;13.568;2023-05-07T13:42:57;1.40;;;1.30;;
9409;SDS011;4744;52.576;13.568;2023-05-07T13:45:27;1.10;;;1.10;;
9409;SDS011;4744;52.576;13.568;2023-05-07T13:47:56;1.55;;;1.45;;
9409;SDS011;4744;52.576;13.568;2023-05-07T13:50:23;1.88;;;1.77;;
9409;SDS011;4744;52.576;13.568;2023-05-07T13:52:51;3.10;;;1.80;;
9409;SDS011;4744;52.576;13.568;2023-05-07T13:55:18;1.92;;;1.73;;
9409;SDS011;4744;52.576;13.568;2023-05-07T13:57:46;2.92;;;1.90;;
9409;SDS011;4744;52.576;13.568;2023-05-07T14:00:13;1.92;;;1.83;;
9409;SDS011;4744;52.576;13.568;2023-05-07T14:02:41;1.70;;;1.60;;
9409;SDS011;4744;52.576;13.568;2023-05-07T14:05:10;1.35;;;1.25;;
9409;SDS011;4744;52.576;13.568;2023-05-07T14:07:38;1.50;;;1.40;;
9409;SDS011;4744;52.576;13.568;2023-05-07T14:10:05;1.45;;;1.35;;
9409;SDS011;4744;52.576;13.568;2023-05-07T14:12:33;1.40;;;1.30;;
9409;SDS011;4744;52.576;13.568;2023-05-07T14:15:00;1.38;;;1.27;;
9409;SDS011;4744;52.576;13.568;2023-05-07T14:17:27;1.40;;;1.30;;
9409;SDS011;4744;52.576;13.568;2023-05-07T14:19:54;3.30;;;1.33;;
9409;SDS011;4744;52.576;13.568;2023-05-07T14:22:22;1.35;;;1.23;;
9409;SDS011;4744;52.576;13.568;2023-05-07T14:24:49;1.65;;;1.30;;
9409;SDS011;4744;52.576;13.568;2023-05-07T14:27:16;3.17;;;1.33;;
9409;SDS011;4744;52.576;13.568;2023-05-07T14:29:43;2.45;;;1.17;;
9409;SDS011;4744;52.576;13.568;2023-05-07T14:32:15;1.27;;;1.20;;
9409;SDS011;4744;52.576;13.568;2023-05-07T14:34:42;1.42;;;1.33;;
9409;SDS011;4744;52.576;13.568;2023-05-07T14:37:09;1.33;;;1.23;;
9409;SDS011;4744;52.576;13.568;2023-05-07T14:39:38;1.45;;;1.33;;
9409;SDS011;4744;52.576;13.568;2023-05-07T14:42:05;1.15;;;1.10;;
9409;SDS011;4744;52.576;13.568;2023-05-07T14:44:32;2.10;;;1.30;;
9409;SDS011;4744;52.576;13.568;2023-05-07T14:46:59;2.20;;;1.33;;
9409;SDS011;4744;52.576;13.568;2023-05-07T14:49:26;1.20;;;1.10;;
9409;SDS011;4744;52.576;13.568;2023-05-07T14:51:53;1.42;;;1.30;;
9409;SDS011;4744;52.576;13.568;2023-05-07T14:54:23;1.70;;;1.30;;
9409;SDS011;4744;52.576;13.568;2023-05-07T14:56:51;1.23;;;0.98;;
9409;SDS011;4744;52.576;13.568;2023-05-07T14:59:18;3.28;;;1.33;;
9409;SDS011;4744;52.576;13.568;2023-05-07T15:01:46;1.20;;;1.10;;
9409;SDS011;4744;52.576;13.568;2023-05-07T15:04:13;1.00;;;1.00;;
9409;SDS011;4744;52.576;13.568;2023-05-07T15:06:40;2.40;;;1.25;;
9409;SDS011;4744;52.576;13.568;2023-05-07T15:09:07;1.52;;;1.20;;
9409;SDS011;4744;52.576;13.568;2023-05-07T15:11:34;2.33;;;1.25;;